createdAt,value
2022-11-12T00:00:12.160Z,17.88
2022-11-12T00:02:57.730Z,18.88
2022-11-12T00:05:45.679Z,18.23
2022-11-12T00:08:30.916Z,22.15
2022-11-12T00:11:16.296Z,30.98
2022-11-12T00:14:01.498Z,27.67
2022-11-12T00:16:46.826Z,27.20
2022-11-12T00:19:32.373Z,25.27
2022-11-12T00:22:17.666Z,23.25
2022-11-12T00:25:04.014Z,23.52
2022-11-12T00:27:49.380Z,24.30
2022-11-12T00:30:37.039Z,22.05
2022-11-12T00:33:22.014Z,22.92
2022-11-12T00:36:07.558Z,23.90
2022-11-12T00:38:52.720Z,22.95
2022-11-12T00:41:38.021Z,24.60
2022-11-12T00:44:23.425Z,23.73
2022-11-12T00:47:08.740Z,23.98
2022-11-12T00:49:54.086Z,23.05
2022-11-12T00:52:39.463Z,24.02
2022-11-12T00:55:24.776Z,25.20
2022-11-12T00:58:10.147Z,21.50
2022-11-12T01:00:55.910Z,21.33
2022-11-12T01:03:42.438Z,19.83
2022-11-12T01:06:27.595Z,19.65
2022-11-12T01:09:13.014Z,20.40
2022-11-12T01:11:59.624Z,19.83
2022-11-12T01:14:44.662Z,20.67
2022-11-12T01:17:30.100Z,18.83
2022-11-12T01:20:15.307Z,19.98
2022-11-12T01:23:00.623Z,18.77
2022-11-12T01:25:46.052Z,21.73
2022-11-12T01:28:31.363Z,19.50
2022-11-12T01:31:18.457Z,19.00
2022-11-12T01:34:08.740Z,19.30
2022-11-12T01:36:54.037Z,17.10
2022-11-12T01:39:39.419Z,18.45
2022-11-12T01:42:30.021Z,16.85
2022-11-12T01:45:16.020Z,19.08
2022-11-12T01:48:02.493Z,17.52
2022-11-12T01:50:48.105Z,18.48
2022-11-12T01:53:38.585Z,16.33
2022-11-12T01:56:26.033Z,15.38
2022-11-12T01:59:17.246Z,15.68
2022-11-12T02:02:02.692Z,16.85
2022-11-12T02:04:49.237Z,18.08
2022-11-12T02:07:38.110Z,20.25
2022-11-12T02:10:23.459Z,15.75
2022-11-12T02:13:27.514Z,17.35
2022-11-12T02:16:12.773Z,17.35
2022-11-12T02:18:58.346Z,17.00
2022-11-12T02:21:44.002Z,16.13
2022-11-12T02:24:32.968Z,17.77
2022-11-12T02:27:18.596Z,14.07
2022-11-12T02:30:04.152Z,20.77
2022-11-12T02:32:49.518Z,17.38
2022-11-12T02:35:35.182Z,17.52
2022-11-12T02:38:20.582Z,15.98
2022-11-12T02:41:05.809Z,16.83
2022-11-12T02:43:51.126Z,15.15
2022-11-12T02:46:36.490Z,14.05
2022-11-12T02:49:21.775Z,14.13
2022-11-12T02:52:07.148Z,17.30
2022-11-12T02:54:52.755Z,16.48
2022-11-12T02:57:39.084Z,16.10
2022-11-12T03:00:24.466Z,16.13
2022-11-12T03:03:09.768Z,15.40
2022-11-12T03:05:58.429Z,17.83
2022-11-12T03:08:43.547Z,20.42
2022-11-12T03:11:28.965Z,15.57
2022-11-12T03:14:14.251Z,18.30
2022-11-12T03:16:59.660Z,17.85
2022-11-12T03:19:44.903Z,18.10
2022-11-12T03:22:30.315Z,18.20
2022-11-12T03:25:15.556Z,17.80
2022-11-12T03:28:05.813Z,17.05
2022-11-12T03:30:51.152Z,16.23
2022-11-12T03:33:36.496Z,15.32
2022-11-12T03:36:22.000Z,14.32
2022-11-12T03:39:07.232Z,16.77
2022-11-12T03:41:52.463Z,14.05
2022-11-12T03:44:37.711Z,15.50
2022-11-12T03:47:23.004Z,13.27
2022-11-12T03:50:10.366Z,15.82
2022-11-12T03:52:57.904Z,13.90
2022-11-12T03:55:43.126Z,17.10
2022-11-12T03:58:28.676Z,13.55
2022-11-12T04:01:14.288Z,15.00
2022-11-12T04:03:59.474Z,12.43
2022-11-12T04:07:03.417Z,14.05
2022-11-12T04:09:48.684Z,11.82
2022-11-12T04:12:52.687Z,12.60
2022-11-12T04:15:38.014Z,13.10
2022-11-12T04:18:43.582Z,13.70
2022-11-12T04:21:55.633Z,15.25
2022-11-12T04:25:00.921Z,14.93
2022-11-12T04:27:46.144Z,14.18
2022-11-12T04:30:31.518Z,12.48
2022-11-12T04:33:16.708Z,13.70
2022-11-12T04:36:02.090Z,13.43
2022-11-12T04:38:47.458Z,12.70
2022-11-12T04:41:51.109Z,11.70
2022-11-12T04:44:54.755Z,13.77
2022-11-12T04:47:44.018Z,12.73
2022-11-12T04:50:29.393Z,16.23
2022-11-12T04:53:15.252Z,15.90
2022-11-12T04:56:00.706Z,14.30
2022-11-12T04:58:46.702Z,13.20
2022-11-12T05:01:32.085Z,15.18
2022-11-12T05:04:17.309Z,16.38
2022-11-12T05:07:02.643Z,15.73
2022-11-12T05:09:48.337Z,13.52
2022-11-12T05:12:33.310Z,12.15
2022-11-12T05:15:18.993Z,13.68
2022-11-12T05:18:04.298Z,14.98
2022-11-12T05:20:51.478Z,15.40
2022-11-12T05:23:36.754Z,11.88
2022-11-12T05:26:22.151Z,17.42
2022-11-12T05:29:08.967Z,19.08
2022-11-12T05:31:55.034Z,22.70
2022-11-12T05:34:40.394Z,34.70
2022-11-12T05:37:25.865Z,31.05
2022-11-12T05:40:11.609Z,26.25
2022-11-12T05:42:56.742Z,16.80
2022-11-12T05:45:45.191Z,17.40
2022-11-12T05:48:31.754Z,16.73
2022-11-12T05:51:17.402Z,18.20
2022-11-12T05:54:03.593Z,23.23
2022-11-12T05:56:48.878Z,18.63
2022-11-12T05:59:34.245Z,21.63
2022-11-12T06:02:19.598Z,21.35
2022-11-12T06:05:05.381Z,12.38
2022-11-12T06:07:50.370Z,17.83
2022-11-12T06:10:35.626Z,10.25
2022-11-12T06:13:22.839Z,11.27
2022-11-12T06:16:08.447Z,12.38
2022-11-12T06:18:53.835Z,13.85
2022-11-12T06:21:39.217Z,13.18
2022-11-12T06:24:27.565Z,12.82
2022-11-12T06:27:16.066Z,16.10
2022-11-12T06:30:01.382Z,19.77
2022-11-12T06:32:50.700Z,31.83
2022-11-12T06:35:39.106Z,26.77
2022-11-12T06:38:28.272Z,40.13
2022-11-12T06:41:14.669Z,35.95
2022-11-12T06:43:59.770Z,40.80
2022-11-12T06:46:45.142Z,40.33
2022-11-12T06:49:30.805Z,36.30
2022-11-12T06:52:16.808Z,38.50
2022-11-12T06:55:01.991Z,43.38
2022-11-12T06:57:52.446Z,43.08
2022-11-12T07:00:38.022Z,43.83
2022-11-12T07:03:23.389Z,41.70
2022-11-12T07:06:11.357Z,40.60
2022-11-12T07:08:56.891Z,33.10
2022-11-12T07:11:41.976Z,25.25
2022-11-12T07:14:27.406Z,24.23
2022-11-12T07:17:12.554Z,19.02
2022-11-12T07:20:03.231Z,13.80
2022-11-12T07:22:49.072Z,15.80
2022-11-12T07:25:34.365Z,13.98
2022-11-12T07:28:19.754Z,15.93
2022-11-12T07:31:07.427Z,15.13
2022-11-12T07:33:52.712Z,14.07
2022-11-12T07:36:37.993Z,13.27
2022-11-12T07:39:23.255Z,12.73
2022-11-12T07:42:08.509Z,14.80
2022-11-12T07:44:53.866Z,22.08
2022-11-12T07:47:39.313Z,21.50
2022-11-12T07:50:24.629Z,18.35
2022-11-12T07:53:10.345Z,17.80
2022-11-12T07:55:57.782Z,16.55
2022-11-12T07:58:43.169Z,21.52
2022-11-12T08:01:40.608Z,26.17
2022-11-12T08:04:26.142Z,17.15
2022-11-12T08:07:11.454Z,16.50
2022-11-12T08:09:56.744Z,19.52
2022-11-12T08:12:41.962Z,15.02
2022-11-12T08:15:27.213Z,17.90
2022-11-12T08:18:12.452Z,14.98
2022-11-12T08:21:02.821Z,12.77
2022-11-12T08:26:33.920Z,12.93
2022-11-12T08:29:19.142Z,11.23
2022-11-12T08:32:04.650Z,12.02
2022-11-12T08:34:49.949Z,13.30
2022-11-12T08:37:35.217Z,12.95
2022-11-12T08:40:20.537Z,11.13
2022-11-12T08:43:08.241Z,14.35
2022-11-12T08:45:53.496Z,12.88
2022-11-12T08:48:40.227Z,12.57
2022-11-12T08:51:25.858Z,13.15
2022-11-12T08:54:11.365Z,13.55
2022-11-12T08:56:56.585Z,14.90
2022-11-12T08:59:41.938Z,15.15
2022-11-12T09:02:27.292Z,17.23
2022-11-12T09:05:12.625Z,17.85
2022-11-12T09:08:04.001Z,12.05
2022-11-12T09:10:49.887Z,13.20
2022-11-12T09:13:35.689Z,13.80
2022-11-12T09:16:21.577Z,14.18
2022-11-12T09:19:06.648Z,13.13
2022-11-12T09:21:51.870Z,12.52
2022-11-12T09:24:37.237Z,15.50
2022-11-12T09:27:22.530Z,17.70
2022-11-12T09:30:08.486Z,12.80
2022-11-12T09:32:58.020Z,15.77
2022-11-12T09:35:43.694Z,13.18
2022-11-12T09:38:30.005Z,16.08
2022-11-12T09:41:38.572Z,14.82
2022-11-12T09:44:24.492Z,14.45
2022-11-12T09:47:18.754Z,13.68
2022-11-12T09:50:20.413Z,16.88
2022-11-12T09:53:33.374Z,15.35
2022-11-12T09:56:21.748Z,12.90
2022-11-12T09:59:14.186Z,14.93
2022-11-12T10:02:28.725Z,16.73
2022-11-12T10:05:33.527Z,12.75
2022-11-12T10:08:26.188Z,11.05
2022-11-12T10:12:04.318Z,12.52
2022-11-12T10:15:27.376Z,14.23
2022-11-12T10:18:24.752Z,11.10
2022-11-12T10:21:45.540Z,14.20
2022-11-12T10:24:36.504Z,14.75
2022-11-12T10:27:26.225Z,12.80
2022-11-12T10:30:23.936Z,15.88
2022-11-12T10:33:14.927Z,13.95
2022-11-12T10:36:31.150Z,12.98
2022-11-12T10:39:33.515Z,15.95
2022-11-12T10:42:21.472Z,14.88
2022-11-12T10:45:21.137Z,14.40
2022-11-12T10:48:26.795Z,15.73
2022-11-12T10:51:28.534Z,11.52
2022-11-12T10:54:37.529Z,14.10
2022-11-12T10:57:27.319Z,12.50
2022-11-12T11:00:12.577Z,10.70
2022-11-12T11:02:59.206Z,12.73
2022-11-12T11:05:55.161Z,14.55
2022-11-12T11:08:52.095Z,14.30
2022-11-12T11:11:37.500Z,13.13
2022-11-12T11:14:22.277Z,12.35
2022-11-12T11:17:18.645Z,13.93
2022-11-12T11:20:19.056Z,11.38
2022-11-12T11:23:17.526Z,12.63
2022-11-12T11:26:32.801Z,12.75
2022-11-12T11:29:42.271Z,12.77
2022-11-12T11:32:48.169Z,13.02
2022-11-12T11:35:58.998Z,13.23
2022-11-12T11:39:02.430Z,14.10
2022-11-12T11:41:53.951Z,14.35
2022-11-12T11:44:57.198Z,14.68
2022-11-12T11:48:00.589Z,12.65
2022-11-12T11:51:14.325Z,15.60
2022-11-12T11:54:17.139Z,15.00
2022-11-12T11:57:10.803Z,14.55
2022-11-12T12:00:11.711Z,14.88
2022-11-12T12:03:18.133Z,12.23
2022-11-12T12:06:10.785Z,13.60
2022-11-12T12:09:42.524Z,13.02
2022-11-12T12:12:53.519Z,19.42
2022-11-12T12:15:57.158Z,15.95
2022-11-12T12:18:59.535Z,16.20
2022-11-12T12:21:49.756Z,17.00
2022-11-12T12:24:52.947Z,15.25
2022-11-12T12:27:57.700Z,15.05
2022-11-12T12:30:48.316Z,16.73
2022-11-12T12:33:40.480Z,16.95
2022-11-12T12:36:37.847Z,15.93
2022-11-12T12:39:27.196Z,17.25
2022-11-12T12:42:22.621Z,18.08
2022-11-12T12:45:35.793Z,16.77
2022-11-12T12:48:42.032Z,16.27
2022-11-12T12:51:32.809Z,20.30
2022-11-12T12:54:55.435Z,21.30
2022-11-12T12:57:40.840Z,21.55
2022-11-12T13:00:34.431Z,21.52
2022-11-12T13:03:42.963Z,18.70
2022-11-12T13:06:33.632Z,19.17
2022-11-12T13:09:18.746Z,23.13
2022-11-12T13:12:06.722Z,20.35
2022-11-12T13:15:07.854Z,20.83
2022-11-12T13:17:53.014Z,19.90
2022-11-12T13:20:42.502Z,17.70
2022-11-12T13:24:07.560Z,22.20
2022-11-12T13:26:58.087Z,23.40
2022-11-12T13:29:44.458Z,19.58
2022-11-12T13:32:35.751Z,24.98
2022-11-12T13:35:27.087Z,20.27
2022-11-12T13:38:15.889Z,22.63
2022-11-12T13:41:14.900Z,19.38
2022-11-12T13:44:06.258Z,24.25
2022-11-12T13:46:53.588Z,17.75
2022-11-12T13:49:38.647Z,30.45
2022-11-12T13:52:24.904Z,28.25
2022-11-12T13:55:17.578Z,26.67
2022-11-12T13:58:02.815Z,34.72
2022-11-12T14:01:00.244Z,29.50
2022-11-12T14:03:49.191Z,24.08
2022-11-12T14:06:52.409Z,24.05
2022-11-12T14:10:02.916Z,30.60
2022-11-12T14:13:15.709Z,31.98
2022-11-12T14:16:08.839Z,24.13
2022-11-12T14:19:06.122Z,29.50
2022-11-12T14:22:10.621Z,28.77
2022-11-12T14:25:01.010Z,26.88
2022-11-12T14:27:49.067Z,32.40
2022-11-12T14:30:34.297Z,27.80
2022-11-12T14:33:22.150Z,28.30
2022-11-12T14:36:14.348Z,30.38
2022-11-12T14:39:00.090Z,28.27
2022-11-12T14:41:49.291Z,30.38
2022-11-12T14:44:36.976Z,28.23
2022-11-12T14:47:23.176Z,34.58
2022-11-12T14:50:40.260Z,35.10
2022-11-12T14:53:33.032Z,36.65
2022-11-12T14:56:35.387Z,35.38
2022-11-12T14:59:21.088Z,36.67
2022-11-12T15:05:20.470Z,38.60
2022-11-12T15:08:12.152Z,42.67
2022-11-12T15:11:20.300Z,41.38
2022-11-12T15:14:19.592Z,35.72
2022-11-12T15:17:06.071Z,35.35
2022-11-12T15:19:51.986Z,37.20
2022-11-12T15:22:37.124Z,44.83
2022-11-12T15:25:32.546Z,39.72
2022-11-12T15:28:25.993Z,36.08
2022-11-12T15:31:22.091Z,45.38
2022-11-12T15:34:39.491Z,47.05
2022-11-12T15:37:27.853Z,39.20
2022-11-12T15:40:18.733Z,37.75
2022-11-12T15:43:14.108Z,40.50
2022-11-12T15:45:59.551Z,42.95
2022-11-12T15:48:54.444Z,54.35
2022-11-12T15:51:41.386Z,44.70
2022-11-12T15:54:26.908Z,43.88
2022-11-12T15:57:25.334Z,43.72
2022-11-12T16:00:30.519Z,46.30
2022-11-12T16:03:18.871Z,46.20
2022-11-12T16:06:09.061Z,45.03
2022-11-12T16:08:54.612Z,46.38
2022-11-12T16:11:40.191Z,53.47
2022-11-12T16:14:25.473Z,50.33
2022-11-12T16:17:18.486Z,52.30
2022-11-12T16:20:13.382Z,53.97
2022-11-12T16:22:59.345Z,48.95
2022-11-12T16:25:45.351Z,46.42
2022-11-12T16:28:30.345Z,46.05
2022-11-12T16:31:15.803Z,53.78
2022-11-12T16:34:01.099Z,50.17
2022-11-12T16:36:47.486Z,49.13
2022-11-12T16:39:33.380Z,47.00
2022-11-12T16:42:18.610Z,52.55
2022-11-12T16:45:04.296Z,44.15
2022-11-12T16:47:53.986Z,51.60
2022-11-12T16:50:39.353Z,46.88
2022-11-12T16:53:24.667Z,43.10
2022-11-12T16:56:12.754Z,56.53
2022-11-12T16:58:58.001Z,44.83
2022-11-12T17:01:44.296Z,45.15
2022-11-12T17:04:29.693Z,48.92
2022-11-12T17:07:14.976Z,48.25
2022-11-12T17:10:00.304Z,51.40
2022-11-12T17:12:49.108Z,52.08
2022-11-12T17:15:34.169Z,38.28
2022-11-12T17:18:19.390Z,54.45
2022-11-12T17:21:16.465Z,48.60
2022-11-12T17:24:01.720Z,44.88
2022-11-12T17:26:47.159Z,45.63
2022-11-12T17:29:32.981Z,44.20
2022-11-12T17:32:18.083Z,40.78
2022-11-12T17:35:03.686Z,45.08
2022-11-12T17:37:48.806Z,42.85
2022-11-12T17:40:34.227Z,43.30
2022-11-12T17:43:19.473Z,42.40
2022-11-12T17:46:06.972Z,49.22
2022-11-12T17:48:52.616Z,53.45
2022-11-12T17:51:38.041Z,52.95
2022-11-12T17:54:23.253Z,46.88
2022-11-12T17:57:08.766Z,47.55
2022-11-12T17:59:54.134Z,49.15
2022-11-12T18:02:39.542Z,51.20
2022-11-12T18:05:25.394Z,46.90
2022-11-12T18:08:10.630Z,49.90
2022-11-12T18:10:56.060Z,53.50
2022-11-12T18:13:41.324Z,50.65
2022-11-12T18:16:28.788Z,50.25
2022-11-12T18:19:14.381Z,48.45
2022-11-12T18:21:59.832Z,50.35
2022-11-12T18:24:46.404Z,46.13
2022-11-12T18:27:31.807Z,52.22
2022-11-12T18:30:19.532Z,51.65
2022-11-12T18:33:05.521Z,51.63
2022-11-12T18:36:00.796Z,51.35
2022-11-12T18:38:48.339Z,46.45
2022-11-12T18:41:34.281Z,56.40
2022-11-12T18:44:24.773Z,55.00
2022-11-12T18:47:11.055Z,66.60
2022-11-12T18:49:56.252Z,118.25
2022-11-12T18:52:41.882Z,102.85
2022-11-12T18:55:27.078Z,73.50
2022-11-12T18:58:12.460Z,51.25
2022-11-12T19:01:05.569Z,50.53
2022-11-12T19:03:55.565Z,52.72
2022-11-12T19:09:26.676Z,58.60
2022-11-12T19:12:11.889Z,61.63
2022-11-12T19:14:57.031Z,44.88
2022-11-12T19:17:42.855Z,59.45
2022-11-12T19:20:29.217Z,455.70
2022-11-12T19:23:14.462Z,483.60
2022-11-12T19:26:01.076Z,281.60
2022-11-12T19:28:46.011Z,312.33
2022-11-12T19:31:34.228Z,319.17
2022-11-12T19:34:19.432Z,116.30
2022-11-12T19:37:33.045Z,381.35
2022-11-12T19:40:10.928Z,151.98
2022-11-12T19:42:56.283Z,121.13
2022-11-12T19:45:41.577Z,54.17
2022-11-12T19:48:27.307Z,56.75
2022-11-12T19:51:13.743Z,117.85
2022-11-12T19:53:59.311Z,149.70
2022-11-12T19:56:44.814Z,67.82
2022-11-12T19:59:30.222Z,65.20
2022-11-12T20:02:15.597Z,75.80
2022-11-12T20:05:00.945Z,81.78
2022-11-12T20:07:48.974Z,53.72
2022-11-12T20:10:33.977Z,59.33
2022-11-12T20:13:19.440Z,51.83
2022-11-12T20:16:23.933Z,50.10
2022-11-12T20:19:10.763Z,49.78
2022-11-12T20:21:56.030Z,48.45
2022-11-12T20:24:41.177Z,117.78
2022-11-12T20:27:26.545Z,46.72
2022-11-12T20:30:12.266Z,59.83
2022-11-12T20:32:57.414Z,73.88
2022-11-12T20:35:42.684Z,71.13
2022-11-12T20:38:28.567Z,69.88
2022-11-12T20:41:20.156Z,85.80
2022-11-12T20:44:05.621Z,103.40
2022-11-12T20:46:50.634Z,83.90
2022-11-12T20:49:36.025Z,50.83
2022-11-12T20:52:21.226Z,55.42
2022-11-12T20:55:06.968Z,67.38
2022-11-12T20:57:52.589Z,55.55
2022-11-12T21:00:38.944Z,54.10
2022-11-12T21:03:24.249Z,48.25
2022-11-12T21:06:15.162Z,49.95
2022-11-12T21:09:00.638Z,66.32
2022-11-12T21:11:46.022Z,51.80
2022-11-12T21:14:31.299Z,58.80
2022-11-12T21:17:16.704Z,75.47
2022-11-12T21:20:01.849Z,85.43
2022-11-12T21:22:47.180Z,137.60
2022-11-12T21:25:36.944Z,49.47
2022-11-12T21:28:22.289Z,45.70
2022-11-12T21:31:10.026Z,49.22
2022-11-12T21:33:58.710Z,41.10
2022-11-12T21:36:44.009Z,41.55
2022-11-12T21:39:29.311Z,37.75
2022-11-12T21:42:14.708Z,45.88
2022-11-12T21:44:59.930Z,40.30
2022-11-12T21:47:45.173Z,39.70
2022-11-12T21:50:30.582Z,41.45
2022-11-12T21:53:15.773Z,38.28
2022-11-12T21:56:05.644Z,45.15
2022-11-12T21:58:53.291Z,43.45
2022-11-12T22:01:40.554Z,43.40
2022-11-12T22:04:25.691Z,36.85
2022-11-12T22:07:10.998Z,33.85
2022-11-12T22:09:56.994Z,36.22
2022-11-12T22:12:58.685Z,37.47
2022-11-12T22:15:50.592Z,34.92
2022-11-12T22:18:36.575Z,30.67
2022-11-12T22:21:36.983Z,37.28
2022-11-12T22:24:24.027Z,34.35
2022-11-12T22:27:09.162Z,33.03
2022-11-12T22:29:54.321Z,32.92
2022-11-12T22:32:39.711Z,32.05
2022-11-12T22:35:25.093Z,35.30
2022-11-12T22:38:10.642Z,32.72
2022-11-12T22:41:01.808Z,34.47
2022-11-12T22:43:48.007Z,36.58
2022-11-12T22:46:35.046Z,34.63
2022-11-12T22:49:20.045Z,40.00
2022-11-12T22:52:05.243Z,38.00
2022-11-12T22:54:50.754Z,42.55
2022-11-12T22:57:36.079Z,46.53
2022-11-12T23:00:29.699Z,48.50
2022-11-12T23:03:14.712Z,46.05
2022-11-12T23:06:03.172Z,44.05
2022-11-12T23:08:49.168Z,46.03
2022-11-12T23:11:37.619Z,47.42
2022-11-12T23:14:23.242Z,47.97
2022-11-12T23:17:08.404Z,48.42
2022-11-12T23:19:53.744Z,49.63
2022-11-12T23:22:39.121Z,42.17
2022-11-12T23:25:24.372Z,47.78
2022-11-12T23:28:09.640Z,45.95
2022-11-12T23:30:55.047Z,54.30
2022-11-12T23:33:45.148Z,44.58
2022-11-12T23:36:31.443Z,43.17
2022-11-12T23:39:16.394Z,43.30
2022-11-12T23:42:01.613Z,51.33
2022-11-12T23:44:46.895Z,44.58
2022-11-12T23:47:32.187Z,49.17
2022-11-12T23:50:17.562Z,50.92
2022-11-12T23:53:02.625Z,53.47
2022-11-12T23:55:47.867Z,55.75
2022-11-12T23:58:33.367Z,56.55
